PWSweather.com
Personal Weather Stations
Station Observations
IRIVIRED2
île Maurice, Petit RaffrayMU

île MauricePetit RaffrayMU

Lat: -20.02533, Lon: 57.61883

Elevation: 183

Station Type: Davis Vantage Pro2 plus

http://www.meteomauritius.altervista.org

Latest ConditionsUpdated 11:00:01 AM GMT+04:04 Tuesday, Aug 22, 2017
Currently Today's Max Today's Min Today's Average
Temperature 78.4°F25.8°C 78.4°F25.8°C 70.4°F21.3°C 72.9°F22.7°C
Dew Point 69.0°F20.6°C 70.4°F21.3°C 66.5°F19.2°C 67.9°F19.9°C
Winds 3.5 mph E5.6 kmh E 8.1 mph ENE13.0 kmh ENE - 3.1 mph 5.0 kmh
Wind Gusts 5.8 mph9.3 kmh 13.8 mph22.2 kmh - -
Humidity 73% 90% 73% 85%
Pressure 30.05 in1017.6 mb 30.07 in1018.3 mb 30.02 in1016.6 mb -
Hour Temp Dew Point Humidity Winds Wind Gusts Pressure Precip Precip Rate Daily Precip Total
11:00 AM 78.4°F25.8°C 69.0°F20.6°C 73% 3.5 mph E5.6 kmh E 5.8 mph9.3 kmh 30.05 in1017.6 mb - 0.00 in0.0 mm 0.00 in0.0 mm
10:50 AM 77.9°F25.5°C 68.5°F20.3°C 73% 4.6 mph ENE7.4 kmh ENE 9.2 mph14.8 kmh 30.05 in1017.6 mb - 0.00 in0.0 mm 0.00 in0.0 mm
10:40 AM 78.2°F25.7°C 69.2°F20.7°C 74% 8.1 mph NE13.0 kmh NE 12.7 mph20.4 kmh 30.05 in1017.6 mb - 0.00 in0.0 mm 0.00 in0.0 mm
10:30 AM 77.7°F25.4°C 69.5°F20.8°C 76% 6.9 mph E11.1 kmh E 6.9 mph11.1 kmh 30.05 in1017.6 mb - 0.00 in0.0 mm 0.00 in0.0 mm
10:20 AM 78.0°F25.6°C 69.0°F20.6°C 74% 6.9 mph NE11.1 kmh NE 11.5 mph18.5 kmh 30.06 in1017.9 mb - 0.00 in0.0 mm 0.00 in0.0 mm
10:10 AM 77.7°F25.4°C 69.5°F20.8°C 76% 4.6 mph NNE7.4 kmh NNE 12.7 mph20.4 kmh 30.06 in1017.9 mb - 0.00 in0.0 mm 0.00 in0.0 mm
10:00 AM 78.1°F25.6°C 69.9°F21.1°C 76% 8.1 mph ENE13.0 kmh ENE 13.8 mph22.2 kmh 30.06 in1017.9 mb - 0.00 in0.0 mm 0.00 in0.0 mm
09:50 AM 77.7°F25.4°C 69.1°F20.6°C 75% 6.9 mph NE11.1 kmh NE 8.1 mph13.0 kmh 30.06 in1017.9 mb - 0.00 in0.0 mm 0.00 in0.0 mm
09:40 AM 77.4°F25.2°C 68.9°F20.5°C 75% 8.1 mph NE13.0 kmh NE 11.5 mph18.5 kmh 30.06 in1017.9 mb - 0.00 in0.0 mm 0.00 in0.0 mm
09:30 AM 77.4°F25.2°C 69.6°F20.9°C 77% 5.8 mph NE9.3 kmh NE 11.5 mph18.5 kmh 30.06 in1017.9 mb - 0.00 in0.0 mm 0.00 in0.0 mm
09:20 AM 77.1°F25.1°C 68.9°F20.5°C 76% 6.9 mph NE11.1 kmh NE 12.7 mph20.4 kmh 30.07 in1018.3 mb - 0.00 in0.0 mm 0.00 in0.0 mm
09:10 AM 76.3°F24.6°C 69.7°F20.9°C 80% 6.9 mph NE11.1 kmh NE 13.8 mph22.2 kmh 30.06 in1017.9 mb - 0.00 in0.0 mm 0.00 in0.0 mm
09:00 AM 75.9°F24.4°C 69.2°F20.7°C 80% 6.9 mph ENE11.1 kmh ENE 11.5 mph18.5 kmh 30.06 in1017.9 mb - 0.00 in0.0 mm 0.00 in0.0 mm
08:50 AM 76.4°F24.7°C 69.1°F20.6°C 78% 5.8 mph NE9.3 kmh NE 8.1 mph13.0 kmh 30.05 in1017.6 mb - 0.00 in0.0 mm 0.00 in0.0 mm
08:40 AM 76.6°F24.8°C 70.0°F21.1°C 80% 4.6 mph ENE7.4 kmh ENE 9.2 mph14.8 kmh 30.05 in1017.6 mb - 0.00 in0.0 mm 0.00 in0.0 mm
08:30 AM 76.1°F24.5°C 69.5°F20.8°C 80% 8.1 mph ENE13.0 kmh ENE 10.4 mph16.7 kmh 30.05 in1017.6 mb - 0.00 in0.0 mm 0.00 in0.0 mm
08:20 AM 76.3°F24.6°C 70.4°F21.3°C 82% 6.9 mph ENE11.1 kmh ENE 11.5 mph18.5 kmh 30.05 in1017.6 mb - 0.00 in0.0 mm 0.00 in0.0 mm
08:10 AM 75.4°F24.1°C 69.9°F21.1°C 83% 6.9 mph NE11.1 kmh NE 12.7 mph20.4 kmh 30.05 in1017.6 mb - 0.00 in0.0 mm 0.00 in0.0 mm
08:00 AM 75.4°F24.1°C 69.9°F21.1°C 83% 2.3 mph E3.7 kmh E 9.2 mph14.8 kmh 30.04 in1017.3 mb - 0.00 in0.0 mm 0.00 in0.0 mm
07:50 AM 74.7°F23.7°C 69.5°F20.8°C 84% 6.9 mph ENE11.1 kmh ENE 9.2 mph14.8 kmh 30.04 in1017.3 mb - 0.00 in0.0 mm 0.00 in0.0 mm
07:40 AM 74.1°F23.4°C 69.6°F20.9°C 86% 4.6 mph E7.4 kmh E 6.9 mph11.1 kmh 30.04 in1017.3 mb - 0.00 in0.0 mm 0.00 in0.0 mm
07:30 AM 73.2°F22.9°C 69.4°F20.8°C 88% 3.5 mph E5.6 kmh E 3.5 mph5.6 kmh 30.04 in1017.3 mb - 0.00 in0.0 mm 0.00 in0.0 mm
07:20 AM 72.2°F22.3°C 68.4°F20.2°C 88% 3.5 mph E5.6 kmh E 6.9 mph11.1 kmh 30.03 in1016.9 mb - 0.00 in0.0 mm 0.00 in0.0 mm
07:10 AM 71.4°F21.9°C 68.0°F20.0°C 89% 3.5 mph E5.6 kmh E 4.6 mph7.4 kmh 30.03 in1016.9 mb - 0.00 in0.0 mm 0.00 in0.0 mm
07:00 AM 70.8°F21.6°C 67.4°F19.7°C 89% 1.2 mph E1.9 kmh E 3.5 mph5.6 kmh 30.03 in1016.9 mb - 0.00 in0.0 mm 0.00 in0.0 mm
06:50 AM 70.5°F21.4°C 67.4°F19.7°C 90% 1.2 mph ENE1.9 kmh ENE 3.5 mph5.6 kmh 30.03 in1016.9 mb - 0.00 in0.0 mm 0.00 in0.0 mm
06:40 AM 70.4°F21.3°C 67.3°F19.6°C 90% Calm Calm 2.3 mph3.7 kmh 30.03 in1016.9 mb - 0.00 in0.0 mm 0.00 in0.0 mm
06:30 AM 70.4°F21.3°C 67.3°F19.6°C 90% Calm Calm 1.2 mph1.9 kmh 30.03 in1016.9 mb - 0.00 in0.0 mm 0.00 in0.0 mm
06:20 AM 70.5°F21.4°C 67.4°F19.7°C 90% Calm Calm -- 30.03 in1016.9 mb - 0.00 in0.0 mm 0.00 in0.0 mm
06:10 AM 70.6°F21.4°C 67.5°F19.7°C 90% 2.3 mph E3.7 kmh E 3.5 mph5.6 kmh 30.02 in1016.6 mb - 0.00 in0.0 mm 0.00 in0.0 mm
06:00 AM 70.7°F21.5°C 67.3°F19.6°C 89% 2.3 mph E3.7 kmh E 4.6 mph7.4 kmh 30.02 in1016.6 mb - 0.00 in0.0 mm 0.00 in0.0 mm
05:50 AM 70.9°F21.6°C 67.5°F19.7°C 89% 2.3 mph E3.7 kmh E 4.6 mph7.4 kmh 30.03 in1016.9 mb - 0.00 in0.0 mm 0.00 in0.0 mm
05:40 AM 70.8°F21.6°C 67.4°F19.7°C 89% 2.3 mph E3.7 kmh E 3.5 mph5.6 kmh 30.02 in1016.6 mb - 0.00 in0.0 mm 0.00 in0.0 mm
05:30 AM 70.8°F21.6°C 67.1°F19.5°C 88% Calm Calm 3.5 mph5.6 kmh 30.02 in1016.6 mb - 0.00 in0.0 mm 0.00 in0.0 mm
05:20 AM 70.6°F21.4°C 66.9°F19.4°C 88% 3.5 mph E5.6 kmh E 4.6 mph7.4 kmh 30.02 in1016.6 mb - 0.00 in0.0 mm 0.00 in0.0 mm
05:10 AM 70.5°F21.4°C 66.8°F19.3°C 88% 1.2 mph E1.9 kmh E 3.5 mph5.6 kmh 30.02 in1016.6 mb - 0.00 in0.0 mm 0.00 in0.0 mm
05:00 AM 70.4°F21.3°C 66.7°F19.3°C 88% Calm Calm -- 30.02 in1016.6 mb - 0.00 in0.0 mm 0.00 in0.0 mm
04:50 AM 70.6°F21.4°C 66.5°F19.2°C 87% Calm Calm -- 30.02 in1016.6 mb - 0.00 in0.0 mm 0.00 in0.0 mm
04:40 AM 70.7°F21.5°C 66.7°F19.3°C 87% 2.3 mph E3.7 kmh E 3.5 mph5.6 kmh 30.02 in1016.6 mb - 0.00 in0.0 mm 0.00 in0.0 mm
04:30 AM 70.8°F21.6°C 66.7°F19.3°C 87% 2.3 mph E3.7 kmh E 5.8 mph9.3 kmh 30.02 in1016.6 mb - 0.00 in0.0 mm 0.00 in0.0 mm
04:20 AM 70.7°F21.5°C 67.0°F19.4°C 88% 2.3 mph E3.7 kmh E 4.6 mph7.4 kmh 30.02 in1016.6 mb - 0.00 in0.0 mm 0.00 in0.0 mm
04:10 AM 70.6°F21.4°C 66.9°F19.4°C 88% 2.3 mph E3.7 kmh E 6.9 mph11.1 kmh 30.02 in1016.6 mb - 0.00 in0.0 mm 0.00 in0.0 mm
04:00 AM 70.7°F21.5°C 67.0°F19.4°C 88% 1.2 mph E1.9 kmh E 3.5 mph5.6 kmh 30.02 in1016.6 mb - 0.00 in0.0 mm 0.00 in0.0 mm
03:50 AM 70.8°F21.6°C 67.0°F19.4°C 88% 2.3 mph E3.7 kmh E 4.6 mph7.4 kmh 30.02 in1016.6 mb - 0.00 in0.0 mm 0.00 in0.0 mm
03:40 AM 70.9°F21.6°C 66.8°F19.3°C 87% 1.2 mph E1.9 kmh E 3.5 mph5.6 kmh 30.03 in1016.9 mb - 0.00 in0.0 mm 0.00 in0.0 mm
03:30 AM 70.9°F21.6°C 66.9°F19.4°C 87% 1.2 mph E1.9 kmh E 4.6 mph7.4 kmh 30.03 in1016.9 mb - 0.00 in0.0 mm 0.00 in0.0 mm
03:20 AM 71.1°F21.7°C 67.0°F19.4°C 87% 3.5 mph E5.6 kmh E 5.8 mph9.3 kmh 30.03 in1016.9 mb - 0.00 in0.0 mm 0.00 in0.0 mm
03:10 AM 71.3°F21.8°C 67.2°F19.6°C 87% 2.3 mph E3.7 kmh E 3.5 mph5.6 kmh 30.03 in1016.9 mb - 0.00 in0.0 mm 0.00 in0.0 mm
03:00 AM 71.4°F21.9°C 67.0°F19.4°C 86% Calm Calm -- 30.03 in1016.9 mb - 0.00 in0.0 mm 0.00 in0.0 mm
02:50 AM 71.5°F21.9°C 67.1°F19.5°C 86% 2.3 mph E3.7 kmh E 3.5 mph5.6 kmh 30.04 in1017.3 mb - 0.00 in0.0 mm 0.00 in0.0 mm
02:40 AM 71.5°F21.9°C 67.1°F19.5°C 86% 1.2 mph E1.9 kmh E 3.5 mph5.6 kmh 30.03 in1016.9 mb - 0.00 in0.0 mm 0.00 in0.0 mm
02:30 AM 71.6°F22.0°C 67.2°F19.6°C 86% Calm Calm 3.5 mph5.6 kmh 30.03 in1016.9 mb - 0.00 in0.0 mm 0.00 in0.0 mm
02:20 AM 71.6°F22.0°C 67.2°F19.6°C 86% 2.3 mph E3.7 kmh E 4.6 mph7.4 kmh 30.03 in1016.9 mb - 0.00 in0.0 mm 0.00 in0.0 mm
02:10 AM 71.6°F22.0°C 67.2°F19.6°C 86% 2.3 mph E3.7 kmh E 3.5 mph5.6 kmh 30.03 in1016.9 mb - 0.00 in0.0 mm 0.00 in0.0 mm
02:00 AM 71.6°F22.0°C 67.5°F19.7°C 87% 1.2 mph E1.9 kmh E 4.6 mph7.4 kmh 30.04 in1017.3 mb - 0.00 in0.0 mm 0.00 in0.0 mm
01:50 AM 71.6°F22.0°C 67.5°F19.7°C 87% 2.3 mph E3.7 kmh E 5.8 mph9.3 kmh 30.04 in1017.3 mb - 0.00 in0.0 mm 0.00 in0.0 mm
01:40 AM 71.6°F22.0°C 67.9°F19.9°C 88% 2.3 mph E3.7 kmh E 3.5 mph5.6 kmh 30.04 in1017.3 mb - 0.00 in0.0 mm 0.00 in0.0 mm
01:30 AM 71.5°F21.9°C 67.8°F19.9°C 88% 2.3 mph E3.7 kmh E 4.6 mph7.4 kmh 30.04 in1017.3 mb - 0.00 in0.0 mm 0.00 in0.0 mm
01:20 AM 71.4°F21.9°C 67.6°F19.8°C 88% 2.3 mph E3.7 kmh E 5.8 mph9.3 kmh 30.05 in1017.6 mb - 0.00 in0.0 mm 0.00 in0.0 mm
01:10 AM 71.1°F21.7°C 67.4°F19.7°C 88% 1.2 mph E1.9 kmh E 2.3 mph3.7 kmh 30.05 in1017.6 mb - 0.00 in0.0 mm 0.00 in0.0 mm
01:00 AM 71.0°F21.7°C 66.9°F19.4°C 87% 1.2 mph ENE1.9 kmh ENE 3.5 mph5.6 kmh 30.05 in1017.6 mb - 0.00 in0.0 mm 0.00 in0.0 mm
12:50 AM 71.1°F21.7°C 67.0°F19.4°C 87% 2.3 mph ENE3.7 kmh ENE 3.5 mph5.6 kmh 30.05 in1017.6 mb - 0.00 in0.0 mm 0.00 in0.0 mm
12:40 AM 71.1°F21.7°C 67.0°F19.4°C 87% 3.5 mph ENE5.6 kmh ENE 3.5 mph5.6 kmh 30.05 in1017.6 mb - 0.00 in0.0 mm 0.00 in0.0 mm
12:30 AM 70.9°F21.6°C 66.8°F19.3°C 87% 3.5 mph ENE5.6 kmh ENE 6.9 mph11.1 kmh 30.05 in1017.6 mb - 0.00 in0.0 mm 0.00 in0.0 mm
12:20 AM 70.9°F21.6°C 67.2°F19.6°C 88% 2.3 mph ENE3.7 kmh ENE 3.5 mph5.6 kmh 30.05 in1017.6 mb - 0.00 in0.0 mm 0.00 in0.0 mm
12:10 AM 71.0°F21.7°C 67.2°F19.6°C 88% Calm Calm -- 30.05 in1017.6 mb - 0.00 in0.0 mm 0.00 in0.0 mm
12:00 AM 71.1°F21.7°C 67.4°F19.7°C 88% Calm Calm 2.3 mph3.7 kmh 30.06 in1017.9 mb - 0.00 in0.0 mm 0.00 in0.0 mm